createdAt,value
2022-08-17T00:05:10.806Z,23.77
2022-08-17T00:15:50.676Z,24.08
2022-08-17T00:19:10.549Z,24.18
2022-08-17T00:22:34.993Z,24.30
2022-08-17T00:25:41.119Z,24.52
2022-08-17T00:29:00.319Z,24.03
2022-08-17T00:33:14.104Z,23.63
2022-08-17T00:38:38.876Z,23.05
2022-08-17T00:41:31.461Z,22.95
2022-08-17T00:44:30.383Z,23.23
2022-08-17T00:47:18.291Z,23.41
2022-08-17T00:49:59.737Z,23.65
2022-08-17T00:52:42.005Z,23.72
2022-08-17T00:58:19.846Z,24.39
2022-08-17T01:01:28.610Z,24.75
2022-08-17T01:04:13.320Z,25.01
2022-08-17T01:06:57.626Z,25.19
2022-08-17T01:09:32.089Z,25.24
2022-08-17T01:12:27.984Z,25.10
2022-08-17T01:15:04.914Z,25.36
2022-08-17T01:17:52.489Z,25.55
2022-08-17T01:20:47.863Z,25.49
2022-08-17T01:23:33.064Z,24.79
2022-08-17T01:26:19.606Z,25.05
2022-08-17T01:29:15.420Z,25.33
2022-08-17T01:35:01.436Z,24.50
2022-08-17T01:37:41.691Z,24.49
2022-08-17T01:40:45.600Z,24.63
2022-08-17T01:43:34.169Z,24.78
2022-08-17T01:46:28.209Z,24.96
2022-08-17T01:49:08.312Z,24.95
2022-08-17T01:51:51.497Z,25.10
2022-08-17T01:54:38.725Z,25.05
2022-08-17T01:57:29.499Z,25.07
2022-08-17T02:00:59.630Z,24.81
2022-08-17T02:04:00.786Z,24.60
2022-08-17T02:06:58.019Z,24.83
2022-08-17T02:09:41.173Z,24.87
2022-08-17T02:12:53.070Z,25.04
2022-08-17T02:15:51.232Z,25.30
2022-08-17T02:18:41.931Z,25.24
2022-08-17T02:25:02.136Z,25.33
2022-08-17T02:30:50.094Z,25.22
2022-08-17T02:34:14.103Z,25.04
2022-08-17T02:40:35.062Z,25.45
2022-08-17T02:43:33.913Z,25.91
2022-08-17T02:46:47.302Z,26.14
2022-08-17T02:50:17.674Z,26.38
2022-08-17T02:53:16.456Z,26.74
2022-08-17T02:59:53.535Z,26.71
2022-08-17T03:02:44.415Z,26.83
2022-08-17T03:05:42.017Z,26.64
2022-08-17T03:08:32.807Z,26.24
2022-08-17T03:11:18.145Z,25.90
2022-08-17T03:14:02.227Z,25.79
2022-08-17T03:20:02.838Z,25.65
2022-08-17T03:22:53.585Z,26.06
2022-08-17T03:26:15.505Z,26.21
2022-08-17T03:33:39.446Z,26.42
2022-08-17T03:51:14.863Z,27.48
2022-08-17T03:54:47.925Z,27.23
2022-08-17T04:01:14.212Z,27.39
2022-08-17T04:14:56.765Z,27.35
2022-08-17T04:25:33.861Z,26.41
2022-08-17T04:28:27.460Z,26.33
2022-08-17T04:50:22.940Z,26.81
2022-08-17T04:56:50.079Z,26.66
2022-08-17T05:00:20.826Z,26.97
2022-08-17T05:06:55.101Z,27.53
2022-08-17T05:16:34.326Z,27.75
2022-08-17T05:35:53.471Z,27.47
2022-08-17T05:38:40.836Z,27.61
2022-08-17T05:48:05.137Z,27.44
2022-08-17T05:52:02.434Z,27.10
2022-08-17T05:58:58.246Z,27.29
2022-08-17T06:22:35.705Z,27.23
2022-08-17T06:25:54.989Z,27.32
2022-08-17T06:29:03.389Z,27.25
2022-08-17T06:43:48.057Z,27.06
2022-08-17T06:47:28.776Z,26.73
2022-08-17T06:53:52.032Z,26.65
2022-08-17T07:00:58.839Z,26.79
2022-08-17T07:05:01.145Z,26.78
2022-08-17T07:09:08.864Z,26.77
2022-08-17T07:16:00.075Z,26.73
2022-08-17T07:18:45.002Z,26.78
2022-08-17T07:21:50.493Z,26.70
2022-08-17T07:24:48.380Z,26.72
2022-08-17T07:27:28.241Z,26.75
2022-08-17T07:30:47.113Z,26.74
2022-08-17T07:36:50.104Z,26.42
2022-08-17T07:40:04.463Z,26.77
2022-08-17T07:42:48.276Z,26.46
2022-08-17T07:46:02.649Z,26.10
2022-08-17T07:52:47.796Z,26.57
2022-08-17T08:15:56.792Z,26.39
2022-08-17T08:22:58.425Z,26.38
2022-08-17T08:26:18.846Z,26.37
2022-08-17T08:32:46.984Z,26.28
2022-08-17T08:35:38.170Z,26.14
2022-08-17T08:38:49.915Z,26.07
2022-08-17T08:45:06.406Z,25.82
2022-08-17T08:51:52.525Z,25.58
2022-08-17T08:55:14.122Z,25.39
2022-08-17T08:58:06.001Z,25.28
2022-08-17T09:01:22.194Z,25.16
2022-08-17T09:05:10.401Z,25.04
2022-08-17T09:08:18.221Z,24.80
2022-08-17T09:11:23.368Z,24.49
2022-08-17T09:14:45.420Z,23.96
2022-08-17T09:18:08.527Z,23.98
2022-08-17T09:21:07.446Z,23.79
2022-08-17T09:24:02.983Z,23.47
2022-08-17T09:27:03.889Z,23.24
2022-08-17T09:29:45.284Z,23.11
2022-08-17T09:32:37.058Z,22.99
2022-08-17T09:35:51.667Z,22.88
2022-08-17T09:41:49.413Z,22.57
2022-08-17T09:44:39.955Z,22.40
2022-08-17T09:47:41.907Z,22.11
2022-08-17T09:50:55.586Z,21.95
2022-08-17T09:53:31.681Z,21.96
2022-08-17T09:57:11.723Z,21.48
2022-08-17T10:00:03.769Z,21.59
2022-08-17T10:03:18.029Z,21.49
2022-08-17T10:09:26.360Z,21.15
2022-08-17T10:12:46.468Z,20.99
2022-08-17T10:15:51.963Z,20.84
2022-08-17T10:28:31.528Z,20.49
2022-08-17T10:31:35.785Z,20.35
2022-08-17T10:34:47.265Z,20.09
2022-08-17T10:37:55.350Z,19.99
2022-08-17T10:40:52.603Z,19.72
2022-08-17T10:44:38.120Z,19.76
2022-08-17T10:47:18.267Z,19.45
2022-08-17T10:50:05.768Z,19.50
2022-08-17T10:53:21.015Z,19.46
2022-08-17T10:59:59.038Z,19.29
2022-08-17T11:03:07.808Z,19.18
2022-08-17T11:06:21.008Z,19.15
2022-08-17T11:12:42.354Z,18.95
2022-08-17T11:15:36.613Z,18.96
2022-08-17T11:18:55.131Z,18.98
2022-08-17T11:22:18.997Z,18.98
2022-08-17T11:25:07.724Z,18.94
2022-08-17T11:27:54.041Z,18.70
2022-08-17T11:31:06.820Z,18.73
2022-08-17T11:34:32.209Z,18.19
2022-08-17T11:41:12.934Z,18.40
2022-08-17T11:44:30.304Z,18.31
2022-08-17T11:51:14.089Z,18.21
2022-08-17T11:54:33.458Z,18.16
2022-08-17T11:57:47.068Z,18.16
2022-08-17T12:01:03.843Z,18.15
2022-08-17T12:07:09.311Z,17.92
2022-08-17T12:09:55.358Z,17.88
2022-08-17T12:12:40.833Z,17.90
2022-08-17T12:15:30.634Z,17.94
2022-08-17T12:18:18.838Z,17.92
2022-08-17T12:21:04.828Z,17.85
2022-08-17T12:30:16.377Z,17.56
2022-08-17T12:36:22.435Z,17.88
2022-08-17T12:39:35.038Z,17.94
2022-08-17T12:42:09.414Z,17.91
2022-08-17T12:47:52.567Z,17.75
2022-08-17T12:51:02.065Z,17.62
2022-08-17T12:54:15.102Z,17.48
2022-08-17T12:57:38.858Z,17.47
2022-08-17T13:03:36.804Z,17.49
2022-08-17T13:06:28.344Z,17.49
2022-08-17T13:09:23.040Z,17.50
2022-08-17T13:15:28.431Z,17.49
2022-08-17T13:18:52.685Z,17.43
2022-08-17T13:24:45.231Z,17.38
2022-08-17T13:27:33.742Z,17.41
2022-08-17T13:30:21.381Z,17.37
2022-08-17T13:33:22.829Z,17.48
2022-08-17T13:36:28.752Z,17.43
2022-08-17T13:39:41.385Z,17.38
2022-08-17T13:46:09.413Z,17.27
2022-08-17T13:48:46.730Z,17.20
2022-08-17T13:51:53.371Z,17.26
2022-08-17T13:54:56.415Z,17.23
2022-08-17T13:57:39.709Z,16.99
2022-08-17T14:00:49.674Z,17.10
2022-08-17T14:03:29.107Z,17.11
2022-08-17T14:06:13.241Z,17.11
2022-08-17T14:09:14.933Z,17.06
2022-08-17T14:15:17.363Z,16.91
2022-08-17T14:18:09.066Z,16.53
2022-08-17T14:20:48.624Z,16.80
2022-08-17T14:23:31.434Z,16.71
2022-08-17T14:26:23.400Z,16.68
2022-08-17T14:29:43.537Z,16.61
2022-08-17T14:32:45.747Z,16.45
2022-08-17T14:35:42.041Z,16.59
2022-08-17T14:41:34.349Z,16.62
2022-08-17T14:44:16.391Z,16.48
2022-08-17T14:52:59.192Z,16.68
2022-08-17T14:55:40.891Z,16.73
2022-08-17T14:58:52.477Z,16.78
2022-08-17T15:01:33.348Z,16.75
2022-08-17T15:04:09.999Z,16.75
2022-08-17T15:06:52.463Z,16.84
2022-08-17T15:09:56.526Z,16.87
2022-08-17T15:12:49.784Z,16.86
2022-08-17T15:15:52.719Z,16.90
2022-08-17T15:18:41.973Z,16.97
2022-08-17T15:24:47.465Z,16.98
2022-08-17T15:27:32.374Z,17.03
2022-08-17T15:30:16.802Z,16.98
2022-08-17T15:33:02.715Z,16.90
2022-08-17T15:35:44.309Z,16.75
2022-08-17T15:38:34.528Z,16.81
2022-08-17T15:41:22.382Z,16.74
2022-08-17T15:44:09.491Z,16.78
2022-08-17T15:46:54.279Z,16.74
2022-08-17T15:49:49.480Z,16.75
2022-08-17T15:52:35.858Z,16.80
2022-08-17T15:55:24.230Z,16.76
2022-08-17T15:58:15.325Z,16.97
2022-08-17T16:01:18.624Z,16.97
2022-08-17T16:04:29.778Z,17.23
2022-08-17T16:07:13.790Z,17.33
2022-08-17T16:13:01.454Z,17.30
2022-08-17T16:15:57.148Z,17.54
2022-08-17T16:18:40.486Z,17.52
2022-08-17T16:21:43.117Z,17.60
2022-08-17T16:24:56.785Z,17.73
2022-08-17T16:28:05.511Z,17.84
2022-08-17T16:31:01.210Z,17.98
2022-08-17T16:33:41.607Z,18.02
2022-08-17T16:36:22.017Z,18.04
2022-08-17T16:39:32.092Z,18.05
2022-08-17T16:42:11.475Z,18.05
2022-08-17T16:44:51.823Z,17.90
2022-08-17T16:47:34.914Z,18.07
2022-08-17T16:50:16.805Z,18.09
2022-08-17T16:53:00.437Z,18.14
2022-08-17T16:55:42.185Z,18.20
2022-08-17T16:58:23.576Z,17.61
2022-08-17T17:01:08.018Z,17.78
2022-08-17T17:04:08.424Z,17.59
2022-08-17T17:07:07.594Z,17.46
2022-08-17T17:10:19.192Z,17.43
2022-08-17T17:13:13.421Z,17.12
2022-08-17T17:15:58.158Z,17.30
2022-08-17T17:22:00.365Z,17.28
2022-08-17T17:25:17.707Z,17.20
2022-08-17T17:28:06.718Z,17.19
2022-08-17T17:31:18.978Z,17.14
2022-08-17T17:37:20.001Z,17.01
2022-08-17T17:40:03.123Z,16.98
2022-08-17T17:42:37.499Z,16.95
2022-08-17T17:45:22.043Z,16.96
2022-08-17T17:48:07.659Z,16.92
2022-08-17T17:51:04.536Z,16.90
2022-08-17T17:53:59.785Z,16.91
2022-08-17T17:57:09.213Z,16.93
2022-08-17T18:03:00.591Z,17.01
2022-08-17T18:06:12.930Z,17.01
2022-08-17T18:09:25.383Z,16.99
2022-08-17T18:12:23.676Z,16.94
2022-08-17T18:15:25.796Z,17.00
2022-08-17T18:18:50.114Z,16.93
2022-08-17T18:22:04.137Z,16.90
2022-08-17T18:25:03.124Z,16.86
2022-08-17T18:31:04.724Z,16.86
2022-08-17T18:33:56.467Z,16.65
2022-08-17T18:36:51.133Z,16.78
2022-08-17T18:39:35.713Z,16.89
2022-08-17T18:42:41.433Z,16.92
2022-08-17T18:45:30.585Z,16.97
2022-08-17T18:48:26.956Z,16.93
2022-08-17T18:51:42.706Z,16.77
2022-08-17T18:54:58.821Z,16.77
2022-08-17T18:57:45.951Z,16.66
2022-08-17T19:00:54.358Z,16.16
2022-08-17T19:03:42.430Z,16.17
2022-08-17T19:06:39.080Z,15.96
2022-08-17T19:09:44.070Z,16.05
2022-08-17T19:12:50.189Z,16.05
2022-08-17T19:15:39.972Z,16.04
2022-08-17T19:18:23.552Z,15.90
2022-08-17T19:21:18.063Z,16.04
2022-08-17T19:24:03.843Z,16.01
2022-08-17T19:27:06.155Z,16.07
2022-08-17T19:29:53.269Z,16.06
2022-08-17T19:32:44.893Z,15.96
2022-08-17T19:38:54.963Z,15.84
2022-08-17T19:41:50.975Z,15.78
2022-08-17T19:44:55.800Z,15.89
2022-08-17T19:47:57.085Z,15.91
2022-08-17T19:50:44.488Z,15.82
2022-08-17T19:53:54.170Z,16.01
2022-08-17T19:57:04.885Z,16.08
2022-08-17T20:00:11.516Z,16.11
2022-08-17T20:02:57.109Z,16.18
2022-08-17T20:06:11.628Z,16.26
2022-08-17T20:09:03.546Z,16.41
2022-08-17T20:12:13.507Z,16.76
2022-08-17T20:15:11.117Z,16.93
2022-08-17T20:17:52.697Z,16.94
2022-08-17T20:20:55.863Z,17.22
2022-08-17T20:24:19.548Z,17.15
2022-08-17T20:27:04.068Z,17.48
2022-08-17T20:30:08.985Z,17.61
2022-08-17T20:33:03.650Z,17.78
2022-08-17T20:36:58.342Z,17.99
2022-08-17T20:39:39.205Z,18.16
2022-08-17T20:42:37.026Z,18.46
2022-08-17T20:46:17.720Z,18.72
2022-08-17T20:49:37.985Z,18.98
2022-08-17T20:52:27.693Z,19.00
2022-08-17T20:55:10.709Z,19.07
2022-08-17T20:58:43.891Z,19.12
2022-08-17T21:05:10.062Z,19.39
2022-08-17T21:11:08.509Z,19.58
2022-08-17T21:14:17.870Z,19.72
2022-08-17T21:17:45.769Z,19.76
2022-08-17T21:23:46.732Z,19.97
2022-08-17T21:26:31.289Z,20.09
2022-08-17T21:29:31.967Z,20.06
2022-08-17T21:32:37.379Z,20.09
2022-08-17T21:36:09.818Z,20.13
2022-08-17T21:39:07.284Z,20.30
2022-08-17T21:41:54.227Z,20.15
2022-08-17T21:44:41.222Z,20.29
2022-08-17T21:47:39.044Z,20.30
2022-08-17T21:50:31.715Z,20.55
2022-08-17T21:53:40.589Z,20.85
2022-08-17T21:56:35.820Z,21.03
2022-08-17T21:59:41.111Z,21.25
2022-08-17T22:02:28.788Z,21.45
2022-08-17T22:11:32.473Z,22.06
2022-08-17T22:14:51.491Z,22.04
2022-08-17T22:17:49.287Z,22.26
2022-08-17T22:20:42.371Z,22.46
2022-08-17T22:23:48.326Z,22.51
2022-08-17T22:26:36.979Z,22.67
2022-08-17T22:29:24.724Z,22.55
2022-08-17T22:35:38.347Z,23.04
2022-08-17T22:38:43.766Z,23.10
2022-08-17T22:41:57.416Z,23.14
2022-08-17T22:48:00.904Z,23.35
2022-08-17T22:50:40.619Z,23.45
2022-08-17T22:53:53.782Z,23.56
2022-08-17T22:56:53.136Z,23.59
2022-08-17T23:00:07.161Z,23.72
2022-08-17T23:03:28.689Z,23.81
2022-08-17T23:06:27.748Z,23.79
2022-08-17T23:09:32.899Z,23.95
2022-08-17T23:12:28.077Z,24.05
2022-08-17T23:15:39.757Z,24.07
2022-08-17T23:18:33.520Z,24.24
2022-08-17T23:24:23.429Z,24.47
2022-08-17T23:37:19.152Z,24.95
2022-08-17T23:40:37.313Z,25.08
2022-08-17T23:43:36.421Z,25.21
